Time;durP1;ratioP1;P1;durP2;ratioP2;P2;SDS_P1;SDS_P2;PMS_P1;PMS_P2;Temp;Humidity;BMP_temperature;BMP_pressure;BME280_temperature;BME280_humidity;BME280_pressure;Samples;Min_cycle;Max_cycle;Signal;HPM_P1;HPM_P2
2021/08/31 00:00:13;;;;;;;5.50;4.40;;;;;;;16.53;76.91;100515.59;10382843;28;20578;-57
2021/08/31 00:05:15;;;;;;;5.80;5.20;;;;;;;16.49;76.80;100518.75;10381632;28;20140;-55
2021/08/31 00:10:16;;;;;;;5.50;5.00;;;;;;;16.42;77.19;100521.19;10381763;28;20065;-57
2021/08/31 00:15:18;;;;;;;5.72;5.13;;;;;;;16.46;77.01;100524.44;10380692;28;20136;-56
2021/08/31 00:20:20;;;;;;;5.25;4.63;;;;;;;16.35;77.99;100529.03;10382839;28;20076;-55
2021/08/31 00:25:22;;;;;;;6.82;4.93;;;;;;;16.37;77.45;100536.94;10377416;28;20073;-56
2021/08/31 00:30:23;;;;;;;6.22;4.75;;;;;;;16.30;76.92;100541.25;10382235;28;20077;-56
2021/08/31 00:35:25;;;;;;;5.63;4.80;;;;;;;16.19;76.98;100524.34;10379804;28;20054;-57
2021/08/31 00:40:26;;;;;;;5.25;4.70;;;;;;;16.10;78.19;100541.41;10382354;28;20160;-57
2021/08/31 00:45:28;;;;;;;7.15;5.47;;;;;;;15.94;78.66;100541.22;10380926;28;20658;-57
2021/08/31 00:50:29;;;;;;;6.43;5.75;;;;;;;15.88;80.27;100548.91;10381711;28;20049;-56
2021/08/31 00:55:31;;;;;;;5.82;4.75;;;;;;;15.85;78.81;100549.19;10380441;28;20049;-58
2021/08/31 01:00:32;;;;;;;6.32;5.72;;;;;;;15.79;79.23;100555.16;10379493;28;20046;-56
2021/08/31 01:05:35;;;;;;;5.68;5.13;;;;;;;15.75;79.10;100537.66;10378732;28;20049;-56
2021/08/31 01:10:37;;;;;;;6.05;5.50;;;;;;;15.86;79.61;100550.88;10381603;28;20072;-56
2021/08/31 01:15:39;;;;;;;6.15;5.63;;;;;;;15.79;79.70;100552.47;10381344;28;20136;-56
2021/08/31 01:20:41;;;;;;;6.38;5.30;;;;;;;15.89;79.40;100555.94;10393831;28;20056;-56
2021/08/31 01:25:43;;;;;;;6.10;5.60;;;;;;;15.95;79.53;100559.88;10370285;28;20146;-56
2021/08/31 01:30:49;;;;;;;6.85;5.57;;;;;;;15.98;78.82;100569.47;10380973;28;20049;-57
2021/08/31 01:35:51;;;;;;;6.35;5.75;;;;;;;15.70;80.09;100573.00;10391566;28;20124;-57
2021/08/31 01:40:52;;;;;;;6.93;5.07;;;;;;;15.63;79.62;100573.72;10374286;28;20132;-57
2021/08/31 01:45:54;;;;;;;6.00;5.40;;;;;;;15.50;80.06;100582.94;10372622;28;20132;-56
2021/08/31 01:50:56;;;;;;;6.55;5.60;;;;;;;15.58;80.02;100578.69;10376718;28;20056;-57
2021/08/31 01:55:57;;;;;;;6.07;5.15;;;;;;;15.55;80.48;100559.22;10380031;28;20156;-57
2021/08/31 02:00:59;;;;;;;6.72;5.07;;;;;;;15.64;79.89;100562.84;10380399;28;20123;-57
2021/08/31 02:06:00;;;;;;;5.43;4.93;;;;;;;15.67;78.78;100561.69;10378576;28;20061;-56
2021/08/31 02:11:02;;;;;;;5.85;5.35;;;;;;;15.56;79.56;100554.69;10379029;28;20550;-59
2021/08/31 02:16:03;;;;;;;5.93;5.28;;;;;;;15.59;78.98;100542.81;10380425;28;20050;-57
2021/08/31 02:21:09;;;;;;;6.25;5.43;;;;;;;15.63;79.93;100561.16;10395387;28;20072;-57
2021/08/31 02:26:10;;;;;;;6.60;5.78;;;;;;;15.66;79.01;100562.69;10379438;28;20065;-57
2021/08/31 02:31:12;;;;;;;6.32;5.70;;;;;;;15.50;80.08;100560.66;10399567;28;20197;-57
2021/08/31 02:36:13;;;;;;;6.47;5.80;;;;;;;15.54;79.67;100557.53;10384520;28;20056;-54
2021/08/31 02:41:15;;;;;;;5.63;5.13;;;;;;;15.56;79.64;100560.88;10388271;28;20069;-55
2021/08/31 02:46:16;;;;;;;5.90;5.30;;;;;;;15.43;79.47;100560.38;10386191;28;20073;-55
2021/08/31 02:51:18;;;;;;;6.40;5.20;;;;;;;15.53;78.71;100571.91;10385815;28;20058;-54
2021/08/31 02:56:19;;;;;;;7.75;5.78;;;;;;;15.42;80.56;100569.44;10384765;28;20085;-54
2021/08/31 03:06:35;;;;;;;6.45;5.82;;;;;;;15.53;78.99;100566.53;10384748;28;20069;-56
2021/08/31 03:11:36;;;;;;;6.25;5.05;;;;;;;15.49;79.14;100569.69;10400036;28;20075;-55
2021/08/31 03:16:37;;;;;;;7.40;6.22;;;;;;;15.50;79.58;100576.75;10385941;28;20132;-55
2021/08/31 03:21:39;;;;;;;6.20;5.57;;;;;;;15.45;78.92;100579.88;10386288;28;20052;-55
2021/08/31 03:26:40;;;;;;;6.63;6.03;;;;;;;15.45;79.33;100585.22;10387146;28;20501;-55
2021/08/31 03:31:42;;;;;;;6.78;5.68;;;;;;;15.52;79.69;100602.44;10386616;28;20132;-55
2021/08/31 03:36:44;;;;;;;7.13;5.93;;;;;;;15.56;78.27;100608.34;10387430;28;22289;-55
2021/08/31 03:41:46;;;;;;;6.45;5.75;;;;;;;15.58;78.41;100616.25;10385661;28;20125;-55
2021/08/31 03:46:47;;;;;;;6.15;5.55;;;;;;;15.44;78.63;100614.88;10395235;28;20084;-57
2021/08/31 03:51:49;;;;;;;6.18;5.22;;;;;;;15.38;80.10;100627.88;10379962;28;20061;-55
2021/08/31 03:56:50;;;;;;;6.47;5.82;;;;;;;15.48;78.60;100627.88;10365124;28;20080;-56
2021/08/31 04:01:52;;;;;;;5.32;4.82;;;;;;;15.51;78.58;100632.94;10360653;28;20453;-55
2021/08/31 04:06:56;;;;;;;6.05;5.55;;;;;;;15.52;78.17;100629.28;10364222;28;20053;-55
2021/08/31 04:11:58;;;;;;;5.90;5.38;;;;;;;15.54;78.30;100616.53;10365367;28;20049;-55
2021/08/31 04:17:00;;;;;;;6.20;5.63;;;;;;;15.76;77.22;100638.63;10368456;28;20120;-55
2021/08/31 04:22:02;;;;;;;5.88;5.35;;;;;;;15.89;76.67;100639.16;10367396;28;20203;-55
2021/08/31 04:27:05;;;;;;;6.53;5.32;;;;;;;15.89;76.04;100655.25;10367346;28;20049;-55
2021/08/31 04:32:07;;;;;;;6.50;5.65;;;;;;;15.89;75.84;100657.13;10364168;28;20049;-55
2021/08/31 04:37:08;;;;;;;6.78;5.70;;;;;;;15.84;78.26;100662.94;10376836;28;20049;-48
2021/08/31 04:42:10;;;;;;;6.65;5.93;;;;;;;15.93;77.14;100653.16;10380999;28;20049;-47
2021/08/31 04:47:14;;;;;;;6.93;5.63;;;;;;;16.05;76.72;100661.84;10380636;28;20120;-54
2021/08/31 04:52:16;;;;;;;5.72;5.18;;;;;;;15.80;76.27;100658.00;10381243;28;20053;-54
2021/08/31 04:57:18;;;;;;;6.18;5.55;;;;;;;15.83;76.54;100657.72;10381130;28;20147;-58
2021/08/31 05:02:20;;;;;;;6.05;5.15;;;;;;;15.70;77.02;100653.50;10381514;22;20061;-64
2021/08/31 05:07:22;;;;;;;6.53;5.93;;;;;;;15.65;75.89;100663.81;10376334;28;20440;-65
2021/08/31 05:12:23;;;;;;;6.60;5.90;;;;;;;15.61;76.70;100669.63;10362356;28;20653;-63
2021/08/31 05:17:25;;;;;;;7.07;6.25;;;;;;;15.58;75.86;100675.28;10372600;28;20068;-63
2021/08/31 05:22:27;;;;;;;6.55;5.90;;;;;;;15.53;76.89;100679.22;10372506;28;20053;-64
2021/08/31 05:27:29;;;;;;;7.53;6.10;;;;;;;15.55;76.31;100698.72;10373118;28;20045;-63
2021/08/31 05:32:31;;;;;;;12.48;6.47;;;;;;;15.54;76.81;100694.34;10379724;28;20049;-65
2021/08/31 05:37:32;;;;;;;6.88;5.95;;;;;;;15.55;77.50;100696.06;10380279;28;20053;-62
2021/08/31 05:42:34;;;;;;;7.20;6.50;;;;;;;15.64;77.71;100699.69;10395383;28;20681;-63
2021/08/31 05:47:35;;;;;;;7.38;5.78;;;;;;;15.63;77.90;100710.59;10381498;28;20053;-62
2021/08/31 05:52:37;;;;;;;8.07;5.97;;;;;;;15.68;76.74;100719.03;10394968;28;20409;-64
2021/08/31 05:57:40;;;;;;;6.85;6.15;;;;;;;15.65;77.71;100736.25;10381386;28;20472;-62
2021/08/31 06:02:43;;;;;;;7.38;6.50;;;;;;;15.68;77.10;100727.06;10378792;28;20045;-61
2021/08/31 06:07:45;;;;;;;7.72;6.72;;;;;;;15.83;77.31;100728.31;10389169;28;20091;-61
2021/08/31 06:12:47;;;;;;;7.55;6.65;;;;;;;15.96;75.67;100727.16;10386017;28;20045;-64
2021/08/31 06:17:48;;;;;;;8.25;6.28;;;;;;;15.89;75.79;100733.09;10388341;28;20057;-61
2021/08/31 06:22:50;;;;;;;6.55;5.88;;;;;;;16.01;75.31;100732.94;10388710;28;20127;-61
2021/08/31 06:27:52;;;;;;;8.52;6.30;;;;;;;16.10;74.83;100734.75;10387807;28;20041;-61
2021/08/31 06:32:54;;;;;;;6.80;6.10;;;;;;;16.37;73.83;100747.34;10387834;28;20046;-61
2021/08/31 06:37:55;;;;;;;7.28;5.75;;;;;;;16.53;74.21;100746.69;10388110;28;20050;-61
2021/08/31 06:42:57;;;;;;;7.10;6.35;;;;;;;16.82;73.37;100745.66;10402790;28;20051;-62
2021/08/31 06:47:59;;;;;;;6.50;5.82;;;;;;;17.03;71.88;100750.75;10387460;28;20052;-63
2021/08/31 06:53:00;;;;;;;7.68;5.57;;;;;;;16.95;71.91;100750.69;10387941;28;20076;-60
2021/08/31 06:58:02;;;;;;;6.30;5.57;;;;;;;16.83;72.92;100746.47;10387128;28;20056;-62
2021/08/31 07:03:03;;;;;;;6.15;4.10;;;;;;;17.04;72.24;100755.16;10384391;28;20053;-64
2021/08/31 07:08:05;;;;;;;8.20;4.75;;;;;;;17.14;71.30;100755.06;10384716;28;20068;-60
2021/08/31 07:13:07;;;;;;;7.60;4.88;;;;;;;17.18;71.50;100761.81;10385364;28;20056;-64
2021/08/31 07:18:09;;;;;;;9.40;5.20;;;;;;;17.36;70.85;100766.38;10386442;28;20125;-62
2021/08/31 07:23:14;;;;;;;6.18;5.10;;;;;;;17.34;69.46;100773.72;10385502;28;20065;-64
2021/08/31 07:28:15;;;;;;;11.25;4.78;;;;;;;17.54;69.66;100783.31;10387982;28;20076;-62
2021/08/31 07:33:18;;;;;;;4.82;4.32;;;;;;;17.95;67.95;100778.25;10384699;28;20069;-61
2021/08/31 07:38:19;;;;;;;7.80;6.97;;;;;;;18.12;67.30;100775.66;10385192;28;20046;-59
2021/08/31 07:43:21;;;;;;;6.15;4.30;;;;;;;17.91;66.32;100784.97;10383449;28;20041;-62
2021/08/31 07:48:22;;;;;;;6.60;4.93;;;;;;;18.21;64.76;100774.72;10383891;28;20137;-61
2021/08/31 07:53:28;;;;;;;4.35;3.80;;;;;;;18.38;64.54;100787.22;10399610;28;20045;-60
2021/08/31 07:58:30;;;;;;;4.78;4.32;;;;;;;18.92;64.89;100798.75;10400514;28;20117;-60
2021/08/31 08:03:32;;;;;;;6.78;6.18;;;;;;;19.52;61.66;100795.78;10384605;28;20473;-60
2021/08/31 08:08:34;;;;;;;6.82;5.03;;;;;;;19.36;61.60;100787.69;10384910;28;20124;-58
2021/08/31 08:13:35;;;;;;;4.30;3.90;;;;;;;19.64;61.20;100798.97;10388687;28;20076;-59
2021/08/31 08:18:37;;;;;;;10.52;4.45;;;;;;;19.88;60.48;100805.41;10385764;28;20061;-61
2021/08/31 08:23:38;;;;;;;27.58;6.72;;;;;;;20.17;59.75;100809.41;10386025;28;20065;-59
2021/08/31 08:28:40;;;;;;;5.65;3.90;;;;;;;20.43;59.17;100811.84;10384599;28;20049;-59
2021/08/31 08:33:41;;;;;;;5.15;4.65;;;;;;;20.61;58.72;100811.59;10384518;28;20136;-60
2021/08/31 08:38:43;;;;;;;6.53;4.43;;;;;;;21.09;57.99;100809.69;10398000;28;20118;-62
2021/08/31 08:43:44;;;;;;;14.07;4.85;;;;;;;21.46;56.05;100799.94;10384075;28;20045;-61
2021/08/31 08:48:47;;;;;;;13.55;5.30;;;;;;;21.64;55.01;100806.94;10398840;28;20449;-63
2021/08/31 08:53:48;;;;;;;4.57;4.18;;;;;;;21.92;53.98;100817.16;10384677;28;20206;-62
2021/08/31 08:58:50;;;;;;;5.10;3.92;;;;;;;22.15;53.68;100814.41;10386336;28;20125;-60
2021/08/31 09:03:54;;;;;;;3.88;3.40;;;;;;;22.67;51.58;100815.34;10383078;28;20064;-61
2021/08/31 09:09:05;;;;;;;4.40;4.00;;;;;;;22.62;51.87;100820.50;10385090;28;20072;-64
2021/08/31 09:14:30;;;;;;;4.30;3.90;;;;;;;22.32;51.38;100815.09;10379968;28;20061;-63
2021/08/31 09:19:35;;;;;;;4.35;3.00;;;;;;;22.37;52.05;100823.53;10384604;28;20502;-66
2021/08/31 09:24:37;;;;;;;4.13;3.72;;;;;;;22.55;51.66;100828.56;10385002;28;20119;-64
2021/08/31 09:29:39;;;;;;;5.90;3.10;;;;;;;22.41;52.12;100824.81;10384973;28;20064;-63
2021/08/31 09:34:44;;;;;;;13.55;4.90;;;;;;;22.77;50.84;100819.44;10382660;28;20453;-61
2021/08/31 09:39:46;;;;;;;5.55;3.42;;;;;;;23.91;49.16;100815.16;10383348;28;22888;-62
2021/08/31 09:44:58;;;;;;;7.40;3.65;;;;;;;23.27;48.58;100819.63;10384004;28;20072;-61
2021/08/31 09:50:02;;;;;;;4.82;3.58;;;;;;;23.53;48.71;100811.91;10384554;28;20564;-65
2021/08/31 09:55:04;;;;;;;6.18;3.53;;;;;;;24.66;46.07;100826.31;10383991;28;20045;-64
2021/08/31 10:00:15;;;;;;;5.38;3.10;;;;;;;24.93;43.54;100822.84;10384161;28;20042;-64
2021/08/31 10:05:16;;;;;;;3.40;2.90;;;;;;;25.16;44.30;100825.22;10380449;28;20057;-62
2021/08/31 10:10:18;;;;;;;3.65;3.30;;;;;;;25.72;42.91;100824.91;10383456;28;20522;-65
2021/08/31 10:15:23;;;;;;;3.53;3.23;;;;;;;25.71;42.17;100820.47;10382068;28;20476;-62
2021/08/31 10:20:27;;;;;;;4.55;3.22;;;;;;;25.31;41.90;100825.94;10381442;28;20119;-62
2021/08/31 10:25:48;;;;;;;4.22;3.30;;;;;;;26.20;42.57;100817.53;10373611;28;20422;-63
2021/08/31 10:30:50;;;;;;;3.28;2.90;;;;;;;27.83;38.72;100813.53;10382721;28;20131;-62
2021/08/31 10:35:53;;;;;;;3.95;3.42;;;;;;;28.09;37.83;100819.84;10395284;28;20049;-63
2021/08/31 10:40:55;;;;;;;3.58;3.28;;;;;;;28.49;36.87;100824.84;10395130;28;20057;-63
2021/08/31 10:45:58;;;;;;;3.72;3.42;;;;;;;26.91;39.30;100826.75;10379713;28;20057;-64
2021/08/31 10:51:02;;;;;;;8.18;3.70;;;;;;;25.64;42.64;100825.13;10383802;28;20107;-62
2021/08/31 10:56:25;;;;;;;3.67;3.38;;;;;;;24.65;44.19;100830.09;10386868;28;20132;-61
2021/08/31 11:01:38;;;;;;;4.43;4.03;;;;;;;24.21;45.02;100827.72;10387678;28;20049;-62
2021/08/31 11:06:40;;;;;;;4.32;3.88;;;;;;;24.54;45.12;100833.34;10399921;22;20057;-55
2021/08/31 11:11:44;;;;;;;4.30;3.50;;;;;;;24.69;44.87;100825.91;10388643;28;20064;-56
2021/08/31 11:16:48;;;;;;;3.78;3.47;;;;;;;27.15;40.95;100817.78;10404209;28;20049;-55
2021/08/31 11:21:51;;;;;;;6.00;4.30;;;;;;;28.52;36.30;100824.38;10391897;28;20045;-56
2021/08/31 11:27:01;;;;;;;5.05;3.90;;;;;;;26.23;40.84;100828.03;10390321;28;20049;-56
2021/08/31 11:32:04;;;;;;;4.32;3.92;;;;;;;26.24;42.13;100818.78;10390358;28;20052;-55
2021/08/31 11:37:06;;;;;;;5.05;3.60;;;;;;;26.06;42.65;100824.88;10381466;28;20174;-55
2021/08/31 11:42:09;;;;;;;4.60;3.70;;;;;;;26.40;41.19;100823.75;10381913;28;20443;-56
2021/08/31 11:47:13;;;;;;;4.63;4.15;;;;;;;25.14;42.83;100835.47;10389619;28;20257;-55
2021/08/31 11:52:17;;;;;;;4.88;4.47;;;;;;;25.58;42.80;100815.03;10389485;28;20540;-55
2021/08/31 11:57:18;;;;;;;4.65;4.03;;;;;;;26.38;39.90;100836.78;10380236;28;20501;-57
2021/08/31 12:02:27;;;;;;;4.17;3.77;;;;;;;26.46;40.83;100839.28;10379809;28;20081;-55
2021/08/31 12:07:30;;;;;;;4.38;3.97;;;;;;;26.03;41.34;100831.63;10379167;28;20041;-54
2021/08/31 12:12:32;;;;;;;5.55;3.90;;;;;;;27.21;39.58;100824.28;10387738;28;20049;-55
2021/08/31 12:17:36;;;;;;;4.93;4.45;;;;;;;28.56;37.37;100822.88;10385073;28;20069;-55
2021/08/31 12:22:42;;;;;;;4.32;4.03;;;;;;;28.25;38.69;100817.56;10385828;28;21302;-55
2021/08/31 12:27:49;;;;;;;4.57;3.97;;;;;;;26.88;40.42;100829.94;10375494;28;20104;-55
2021/08/31 12:32:55;;;;;;;4.75;4.28;;;;;;;25.31;42.92;100833.25;10396191;28;20108;-55
2021/08/31 12:38:26;;;;;;;5.78;4.10;;;;;;;24.27;46.05;100835.91;10387051;28;20111;-54
2021/08/31 12:43:42;;;;;;;4.38;3.85;;;;;;;23.85;47.36;100835.00;10380285;28;20045;-54
2021/08/31 12:48:46;;;;;;;4.57;3.90;;;;;;;23.19;49.33;100846.03;10385478;28;20041;-55
2021/08/31 12:53:47;;;;;;;4.72;4.25;;;;;;;22.64;52.08;100851.84;10368453;28;20061;-55
2021/08/31 12:59:00;;;;;;;5.93;5.13;;;;;;;22.37;52.67;100847.94;10397940;28;20046;-55
2021/08/31 13:04:11;;;;;;;;;;;;;;;22.37;53.17;100847.94;10376148;28;20068;-56
2021/08/31 13:09:18;;;;;;;4.55;4.15;;;;;;;22.44;52.73;100832.56;10379261;28;19921;-55
2021/08/31 13:14:22;;;;;;;6.70;5.10;;;;;;;22.43;51.50;100830.91;10397791;28;20050;-55
2021/08/31 13:19:25;;;;;;;4.93;4.32;;;;;;;22.60;50.77;100835.09;10376356;28;20076;-55
2021/08/31 13:24:28;;;;;;;5.40;4.20;;;;;;;23.34;49.42;100818.84;10381443;28;20069;-55
2021/08/31 13:29:30;;;;;;;5.50;5.00;;;;;;;24.03;48.71;100825.50;10370081;28;20575;-55
2021/08/31 13:34:31;;;;;;;4.63;4.22;;;;;;;24.60;45.24;100829.00;10377853;28;20144;-55
2021/08/31 13:39:33;;;;;;;6.30;5.72;;;;;;;24.90;44.28;100813.22;10380232;28;20053;-56
2021/08/31 13:44:36;;;;;;;5.78;4.50;;;;;;;25.21;44.13;100812.66;10379106;28;20141;-55
2021/08/31 13:49:37;;;;;;;4.35;3.95;;;;;;;25.27;43.92;100816.44;10382982;28;20532;-56
2021/08/31 13:54:38;;;;;;;3.45;3.15;;;;;;;25.07;41.55;100797.31;10384190;28;20077;-55
2021/08/31 13:59:40;;;;;;;4.97;3.33;;;;;;;25.08;39.58;100800.91;10384470;28;20146;-56
2021/08/31 14:04:41;;;;;;;3.70;3.40;;;;;;;24.68;41.88;100799.75;10366771;28;20095;-55
2021/08/31 14:09:44;;;;;;;4.45;3.42;;;;;;;24.97;42.35;100805.91;10383599;28;20045;-55
2021/08/31 14:14:46;;;;;;;4.85;3.50;;;;;;;25.20;41.15;100799.25;10380756;28;20077;-56
2021/08/31 14:19:47;;;;;;;4.38;3.20;;;;;;;25.63;40.29;100803.53;10384722;28;20439;-55
2021/08/31 14:24:49;;;;;;;2.95;2.75;;;;;;;25.70;39.48;100790.72;10397634;28;20072;-55
2021/08/31 14:29:50;;;;;;;3.63;3.33;;;;;;;25.61;39.67;100787.34;10392147;28;20124;-55
2021/08/31 14:34:51;;;;;;;3.20;2.90;;;;;;;25.29;38.28;100805.34;10406463;28;20075;-55
2021/08/31 14:39:53;;;;;;;5.05;4.60;;;;;;;24.38;39.76;100806.47;10392127;28;20073;-56
2021/08/31 14:44:54;;;;;;;3.58;3.10;;;;;;;24.32;40.52;100799.94;10386142;28;20089;-60
2021/08/31 14:49:56;;;;;;;3.33;3.03;;;;;;;24.26;41.22;100796.16;10389685;28;20391;-56
2021/08/31 14:54:57;;;;;;;4.32;3.92;;;;;;;24.07;41.28;100794.16;10388633;28;20498;-54
2021/08/31 14:59:59;;;;;;;4.22;3.92;;;;;;;24.06;42.34;100801.47;10387904;28;20045;-56
2021/08/31 15:05:00;;;;;;;3.55;2.97;;;;;;;24.12;41.11;100799.84;10389327;28;20073;-55
2021/08/31 15:10:02;;;;;;;3.95;2.88;;;;;;;24.04;41.39;100791.84;10384495;28;20107;-55
2021/08/31 15:15:04;;;;;;;3.45;2.78;;;;;;;23.62;41.94;100791.72;10388600;28;20049;-55
2021/08/31 15:20:06;;;;;;;4.68;2.80;;;;;;;23.69;40.95;100789.03;10375775;28;20099;-56
2021/08/31 15:25:08;;;;;;;3.30;2.90;;;;;;;23.60;40.85;100786.47;10388140;28;20212;-54
2021/08/31 15:30:10;;;;;;;3.28;2.63;;;;;;;23.38;41.39;100782.09;10387443;28;20045;-56
2021/08/31 15:35:13;;;;;;;3.90;2.88;;;;;;;23.29;41.73;100784.94;10387927;28;20073;-55
2021/08/31 15:40:14;;;;;;;3.35;3.03;;;;;;;23.00;42.53;100777.75;10385657;28;20049;-55
2021/08/31 15:45:16;;;;;;;3.10;2.80;;;;;;;23.00;42.74;100790.47;10402336;28;20068;-57
2021/08/31 15:50:17;;;;;;;4.55;3.50;;;;;;;22.69;43.26;100778.84;10387051;28;20065;-55
2021/08/31 15:55:19;;;;;;;5.75;3.30;;;;;;;22.50;44.84;100801.97;10386707;28;20054;-55
2021/08/31 16:00:20;;;;;;;11.48;5.47;;;;;;;22.54;45.55;100797.88;10387217;28;20131;-55
2021/08/31 16:05:21;;;;;;;17.38;14.38;;;;;;;22.52;45.95;100794.50;10400786;28;20101;-56
2021/08/31 16:10:23;;;;;;;22.80;17.92;;;;;;;22.47;46.41;100801.53;10381033;28;20049;-55
2021/08/31 16:15:25;;;;;;;8.98;6.03;;;;;;;22.33;46.90;100795.91;10378360;28;20498;-56
2021/08/31 16:20:27;;;;;;;6.18;4.43;;;;;;;22.28;46.42;100794.75;10384711;28;20293;-55
2021/08/31 16:25:28;;;;;;;4.88;4.15;;;;;;;22.29;46.13;100805.41;10385623;28;20037;-55
2021/08/31 16:30:29;;;;;;;4.30;3.67;;;;;;;22.25;45.89;100809.56;10376832;28;20128;-56
2021/08/31 16:35:31;;;;;;;4.10;3.70;;;;;;;22.17;45.57;100817.75;10376647;28;20080;-57
2021/08/31 16:40:32;;;;;;;4.18;3.78;;;;;;;21.96;46.48;100794.94;10384337;28;20081;-54
2021/08/31 16:45:34;;;;;;;4.47;4.03;;;;;;;21.88;46.69;100806.69;10384063;28;20342;-55
2021/08/31 16:50:36;;;;;;;5.53;3.40;;;;;;;21.74;47.43;100812.94;10383565;28;20073;-54
2021/08/31 16:55:38;;;;;;;4.68;4.13;;;;;;;21.66;48.12;100816.56;10382860;28;20080;-54
2021/08/31 17:00:40;;;;;;;5.20;4.15;;;;;;;21.61;48.81;100823.56;10383165;28;20077;-55
2021/08/31 17:05:43;;;;;;;6.30;3.45;;;;;;;21.54;48.79;100828.84;10399244;22;20125;-63
2021/08/31 17:10:44;;;;;;;3.45;3.15;;;;;;;21.37;49.48;100822.69;10374976;28;20482;-62
2021/08/31 17:15:46;;;;;;;4.57;3.58;;;;;;;21.28;49.73;100834.59;10381020;28;20129;-60
2021/08/31 17:20:47;;;;;;;4.07;3.17;;;;;;;21.17;50.29;100839.41;10382543;28;20633;-62
2021/08/31 17:25:49;;;;;;;6.30;4.10;;;;;;;21.05;50.61;100839.97;10379220;28;20068;-62
2021/08/31 17:30:51;;;;;;;4.70;3.60;;;;;;;20.91;50.93;100845.16;10373939;28;20144;-60
2021/08/31 17:35:52;;;;;;;4.47;3.60;;;;;;;20.84;51.89;100844.16;10381512;28;20050;-61
2021/08/31 17:40:54;;;;;;;4.70;3.70;;;;;;;20.77;52.06;100841.31;10382455;28;20713;-62
2021/08/31 17:45:55;;;;;;;3.85;3.55;;;;;;;20.68;52.53;100845.06;10381445;28;20111;-62
2021/08/31 17:51:03;;;;;;;4.55;3.80;;;;;;;20.57;53.42;100845.44;10397101;28;20155;-64
2021/08/31 17:56:07;;;;;;;4.32;3.92;;;;;;;20.48;53.33;100853.56;10380842;28;20057;-63
2021/08/31 18:01:08;;;;;;;;;;;;;;;20.35;54.68;100864.06;10386785;28;20130;-61
2021/08/31 18:06:10;;;;;;;5.38;4.32;;;;;;;20.28;55.07;100868.47;10384684;28;19987;-64
2021/08/31 18:11:11;;;;;;;6.18;5.18;;;;;;;20.16;55.00;100877.97;10390683;28;20124;-61
2021/08/31 18:16:13;;;;;;;5.13;4.63;;;;;;;19.97;55.88;100874.63;10391180;28;20053;-63
2021/08/31 18:21:14;;;;;;;5.47;4.78;;;;;;;19.94;57.07;100881.22;10390625;28;20049;-63
2021/08/31 18:26:16;;;;;;;7.32;5.57;;;;;;;19.86;56.92;100885.75;10388862;28;20073;-63
2021/08/31 18:31:17;;;;;;;5.97;5.38;;;;;;;19.76;57.49;100883.22;10405722;28;20065;-61
2021/08/31 18:36:19;;;;;;;5.78;5.18;;;;;;;19.68;57.78;100886.75;10391863;28;20057;-61
2021/08/31 18:41:20;;;;;;;7.80;6.63;;;;;;;19.62;58.72;100898.19;10380228;28;20460;-61
2021/08/31 18:46:22;;;;;;;7.60;6.78;;;;;;;19.56;59.34;100893.47;10383757;28;20099;-64
2021/08/31 18:51:23;;;;;;;7.70;6.90;;;;;;;19.50;60.05;100894.13;10387147;28;20072;-60
2021/08/31 18:56:25;;;;;;;8.20;7.18;;;;;;;19.40;59.67;100905.94;10388101;28;20076;-60
2021/08/31 19:01:26;;;;;;;9.25;7.05;;;;;;;19.28;61.38;100907.28;10389282;28;20494;-62
2021/08/31 19:06:28;;;;;;;7.22;6.57;;;;;;;19.24;61.36;100904.03;10401588;28;20457;-61
2021/08/31 19:11:29;;;;;;;6.90;6.20;;;;;;;19.22;61.07;100907.94;10386810;28;20050;-62
2021/08/31 19:16:31;;;;;;;8.48;6.68;;;;;;;19.12;61.35;100907.22;10402269;28;20211;-61
2021/08/31 19:21:33;;;;;;;7.20;6.03;;;;;;;19.09;61.49;100913.78;10382460;28;20140;-60
2021/08/31 19:26:34;;;;;;;6.93;6.22;;;;;;;19.04;61.30;100922.38;10387155;28;20056;-62
2021/08/31 19:31:36;;;;;;;7.00;6.25;;;;;;;19.00;61.96;100921.00;10401351;28;20085;-62
2021/08/31 19:36:37;;;;;;;7.63;6.93;;;;;;;18.78;61.65;100926.94;10391858;28;20126;-60
2021/08/31 19:41:39;;;;;;;7.28;6.55;;;;;;;18.78;62.86;100925.09;10383664;28;20137;-62
2021/08/31 19:46:41;;;;;;;8.48;7.43;;;;;;;18.77;63.17;100925.25;10384888;28;20103;-60
2021/08/31 19:51:42;;;;;;;8.20;7.40;;;;;;;18.70;63.39;100923.19;10384932;28;20047;-61
2021/08/31 19:56:44;;;;;;;8.95;7.57;;;;;;;18.67;63.63;100928.91;10379675;28;20095;-60
2021/08/31 20:01:45;;;;;;;8.00;6.80;;;;;;;18.63;63.65;100932.06;10380150;28;20128;-63
2021/08/31 20:06:47;;;;;;;51.70;43.63;;;;;;;18.57;63.98;100930.88;10386035;28;20069;-64
2021/08/31 20:11:48;;;;;;;7.28;6.10;;;;;;;18.53;63.66;100926.81;10380027;28;20107;-61
2021/08/31 20:16:49;;;;;;;8.60;6.68;;;;;;;18.48;63.70;100942.59;10377952;28;20053;-63
2021/08/31 20:21:51;;;;;;;7.07;6.38;;;;;;;18.39;63.61;100947.13;10385867;28;20061;-61
2021/08/31 20:26:53;;;;;;;6.18;5.57;;;;;;;18.30;64.17;100950.72;10380239;28;20491;-62
2021/08/31 20:31:54;;;;;;;6.22;5.53;;;;;;;18.16;62.97;100954.84;10400135;28;20791;-60
2021/08/31 20:36:55;;;;;;;5.70;5.20;;;;;;;17.95;62.91;100958.69;10399525;28;20470;-60
2021/08/31 20:41:57;;;;;;;6.40;5.72;;;;;;;17.74;63.43;100961.66;10384296;28;20633;-62
2021/08/31 20:46:59;;;;;;;6.15;5.30;;;;;;;17.75;63.59;100967.91;10383393;28;20435;-64
2021/08/31 20:52:01;;;;;;;6.10;4.80;;;;;;;17.72;63.54;100968.22;10381606;28;20136;-62
2021/08/31 20:57:03;;;;;;;5.82;5.10;;;;;;;17.70;64.19;100971.06;10383989;28;20144;-63
2021/08/31 21:02:04;;;;;;;5.13;4.57;;;;;;;17.60;63.98;100979.19;10383194;28;20041;-62
2021/08/31 21:07:06;;;;;;;5.80;5.20;;;;;;;17.53;64.32;100990.72;10382611;28;20133;-60
2021/08/31 21:12:08;;;;;;;6.25;5.65;;;;;;;17.53;64.30;100991.56;10382595;28;20518;-60
2021/08/31 21:17:09;;;;;;;6.80;5.10;;;;;;;17.46;65.76;100994.03;10382382;28;20638;-61
2021/08/31 21:22:10;;;;;;;6.13;5.50;;;;;;;17.40;64.93;100991.06;10375329;28;20057;-61
2021/08/31 21:27:12;;;;;;;5.47;4.97;;;;;;;17.45;66.12;101005.78;10370048;28;20124;-61
2021/08/31 21:32:13;;;;;;;8.13;5.85;;;;;;;17.56;65.83;101006.56;10377387;28;20229;-61
2021/08/31 21:37:15;;;;;;;6.18;5.22;;;;;;;17.56;65.94;101011.94;10381315;28;20100;-60
2021/08/31 21:42:16;;;;;;;6.60;6.00;;;;;;;17.59;65.34;101014.34;10394719;28;20111;-61
2021/08/31 21:47:18;;;;;;;6.07;5.47;;;;;;;17.59;65.37;101023.25;10379341;28;20148;-62
2021/08/31 21:52:19;;;;;;;8.10;6.00;;;;;;;17.57;65.01;101033.34;10382337;28;20057;-61
2021/08/31 21:57:21;;;;;;;6.68;5.95;;;;;;;17.50;66.22;101029.53;10381708;28;20076;-62
2021/08/31 22:02:22;;;;;;;7.32;6.50;;;;;;;17.49;66.30;101038.63;10372661;28;20219;-61
2021/08/31 22:07:24;;;;;;;6.28;5.68;;;;;;;17.40;66.03;101039.50;10396102;28;20045;-62
2021/08/31 22:12:26;;;;;;;6.50;5.88;;;;;;;17.36;66.34;101033.59;10381162;28;20117;-61
2021/08/31 22:17:27;;;;;;;8.60;6.07;;;;;;;17.33;66.63;101044.66;10380874;28;20068;-61
2021/08/31 22:22:29;;;;;;;7.38;6.63;;;;;;;17.26;67.23;101041.72;10395745;28;20065;-63
2021/08/31 22:27:32;;;;;;;7.35;6.65;;;;;;;17.23;67.24;101049.22;10381236;28;20099;-62
2021/08/31 22:32:33;;;;;;;8.40;6.85;;;;;;;17.18;67.51;101052.34;10379565;28;20054;-64
2021/08/31 22:37:35;;;;;;;8.32;7.03;;;;;;;17.14;67.75;101051.81;10379927;28;20064;-61
2021/08/31 22:42:37;;;;;;;7.32;6.20;;;;;;;17.11;68.32;101053.94;10380912;28;20220;-61
2021/08/31 22:47:38;;;;;;;8.93;8.02;;;;;;;17.07;68.75;101044.44;10384576;28;20107;-60
2021/08/31 22:52:40;;;;;;;7.43;6.43;;;;;;;17.02;68.62;101047.59;10388092;28;20069;-61
2021/08/31 22:57:41;;;;;;;7.47;6.32;;;;;;;16.94;68.72;101037.56;10374703;28;20111;-61
2021/08/31 23:02:42;;;;;;;9.13;7.57;;;;;;;16.94;69.12;101034.88;10387691;28;20045;-61
2021/08/31 23:07:44;;;;;;;8.73;7.43;;;;;;;16.92;69.18;101046.78;10370197;23;20129;-55
2021/08/31 23:12:46;;;;;;;7.75;6.65;;;;;;;16.89;69.18;101037.16;10367831;28;20058;-55